Time;durP1;ratioP1;P1;durP2;ratioP2;P2;SDS_P1;SDS_P2;PMS_P1;PMS_P2;Temp;Humidity;BMP_temperature;BMP_pressure;BME280_temperature;BME280_humidity;BME280_pressure;Samples;Min_cycle;Max_cycle;Signal;HPM_P1;HPM_P2
2023/12/31 00:01:37;;;;;;;6.55;2.45;;;8.40;99.90;;;;;;5005575;28;20057;-59
2023/12/31 00:04:03;;;;;;;6.57;2.58;;;8.50;99.90;;;;;;5005289;28;20396;-60
2023/12/31 00:06:28;;;;;;;3.75;2.20;;;8.50;99.90;;;;;;5003603;28;20083;-62
2023/12/31 00:08:54;;;;;;;5.75;2.42;;;8.60;99.90;;;;;;5007864;28;20033;-60
2023/12/31 00:11:19;;;;;;;4.57;2.13;;;8.50;99.90;;;;;;5004594;28;20026;-60
2023/12/31 00:13:45;;;;;;;12.52;3.20;;;8.50;99.90;;;;;;5010186;28;20021;-60
2023/12/31 00:16:14;;;;;;;3.40;2.45;;;8.50;99.90;;;;;;5010457;28;20465;-60
2023/12/31 00:18:40;;;;;;;6.15;2.63;;;8.50;99.90;;;;;;5010586;28;20025;-60
2023/12/31 00:21:05;;;;;;;8.55;3.60;;;8.50;99.90;;;;;;5009399;28;20074;-61
2023/12/31 00:23:31;;;;;;;6.43;2.80;;;8.50;99.90;;;;;;5008818;28;20026;-61
2023/12/31 00:25:56;;;;;;;6.35;3.28;;;8.60;99.90;;;;;;4999246;28;20485;-60
2023/12/31 00:28:22;;;;;;;8.07;3.35;;;8.50;99.90;;;;;;5010457;28;20026;-60
2023/12/31 00:30:47;;;;;;;6.97;2.70;;;8.50;99.90;;;;;;5007175;28;20045;-61
2023/12/31 00:33:13;;;;;;;3.65;2.47;;;8.50;99.90;;;;;;5008446;28;20022;-60
2023/12/31 00:35:38;;;;;;;5.90;2.60;;;8.50;99.90;;;;;;5010137;28;20034;-59
2023/12/31 00:38:04;;;;;;;5.30;2.78;;;8.60;99.90;;;;;;5008387;28;20056;-61
2023/12/31 00:40:30;;;;;;;3.22;2.30;;;8.60;99.90;;;;;;5005983;28;20038;-61
2023/12/31 00:42:55;;;;;;;7.97;2.72;;;8.60;99.90;;;;;;5010143;28;20037;-60
2023/12/31 00:45:21;;;;;;;5.22;2.72;;;8.60;99.90;;;;;;5007901;28;20096;-61
2023/12/31 00:47:46;;;;;;;8.02;3.00;;;8.60;99.90;;;;;;5009607;28;20113;-60
2023/12/31 00:50:12;;;;;;;4.32;2.58;;;8.60;99.90;;;;;;5007799;28;20030;-59
2023/12/31 00:52:37;;;;;;;6.63;2.95;;;8.60;99.90;;;;;;5007128;28;20519;-61
2023/12/31 00:55:03;;;;;;;6.32;2.55;;;8.60;99.90;;;;;;4984063;28;20023;-61
2023/12/31 00:57:29;;;;;;;4.53;2.33;;;8.50;99.90;;;;;;5010183;28;20022;-59
2023/12/31 00:59:55;;;;;;;4.82;3.15;;;8.50;99.90;;;;;;5004666;28;20408;-61
2023/12/31 01:02:21;;;;;;;9.75;3.40;;;8.60;99.90;;;;;;5006827;28;20041;-61
2023/12/31 01:04:46;;;;;;;6.18;1.95;;;8.60;99.90;;;;;;5002266;28;20022;-61
2023/12/31 01:07:13;;;;;;;3.70;1.70;;;8.60;99.90;;;;;;5003024;28;20033;-61
2023/12/31 01:09:39;;;;;;;6.68;1.77;;;8.70;99.90;;;;;;5005329;28;20073;-61
2023/12/31 01:12:04;;;;;;;4.30;1.95;;;8.70;99.90;;;;;;5007093;28;20057;-61
2023/12/31 01:14:30;;;;;;;3.95;2.15;;;8.80;99.90;;;;;;5007003;28;20022;-60
2023/12/31 01:16:55;;;;;;;3.60;2.47;;;8.80;99.90;;;;;;5008311;28;20439;-60
2023/12/31 01:19:21;;;;;;;2.90;1.52;;;8.90;99.90;;;;;;5007686;28;20022;-60
2023/12/31 01:21:47;;;;;;;3.42;1.60;;;9.00;99.90;;;;;;5007398;28;20019;-59
2023/12/31 01:24:13;;;;;;;3.33;1.67;;;9.10;99.90;;;;;;5004916;28;20037;-61
2023/12/31 01:26:39;;;;;;;2.20;1.55;;;9.00;99.90;;;;;;5009223;28;20408;-60
2023/12/31 01:29:04;;;;;;;4.97;1.27;;;9.00;99.90;;;;;;5005822;28;20472;-60
2023/12/31 01:31:30;;;;;;;3.83;1.52;;;9.00;99.90;;;;;;5004753;28;20500;-59
2023/12/31 01:33:55;;;;;;;5.38;1.88;;;9.00;99.90;;;;;;5009166;28;20033;-56
2023/12/31 01:36:24;;;;;;;4.60;1.77;;;9.00;99.90;;;;;;5010367;28;20037;-61
2023/12/31 01:38:50;;;;;;;4.65;2.65;;;8.90;99.90;;;;;;5005136;28;20408;-62
2023/12/31 01:41:15;;;;;;;7.70;2.28;;;9.00;99.90;;;;;;5012832;28;20088;-59
2023/12/31 01:43:41;;;;;;;3.10;1.63;;;9.00;99.90;;;;;;5010929;28;20522;-60
2023/12/31 01:46:09;;;;;;;5.68;2.22;;;9.00;99.90;;;;;;5008305;28;20535;-61
2023/12/31 01:48:35;;;;;;;7.85;1.90;;;9.10;99.90;;;;;;5006039;28;20049;-61
2023/12/31 01:51:02;;;;;;;2.42;1.15;;;9.10;99.90;;;;;;5004726;28;20038;-61
2023/12/31 01:53:28;;;;;;;4.18;1.63;;;9.10;99.90;;;;;;5006800;28;20026;-61
2023/12/31 01:55:55;;;;;;;4.72;1.80;;;9.00;99.90;;;;;;5008505;28;20492;-61
2023/12/31 01:58:21;;;;;;;4.43;2.10;;;9.00;99.90;;;;;;5012200;28;20056;-60
2023/12/31 02:00:47;;;;;;;3.15;1.90;;;9.00;99.90;;;;;;5005776;28;20060;-61
2023/12/31 02:03:15;;;;;;;3.25;1.90;;;9.00;99.90;;;;;;5005831;28;20054;-61
2023/12/31 02:05:41;;;;;;;2.85;1.67;;;9.00;99.90;;;;;;5004470;28;20025;-60
2023/12/31 02:08:06;;;;;;;2.78;1.33;;;8.90;99.90;;;;;;5009858;28;20051;-61
2023/12/31 02:10:32;;;;;;;5.90;1.63;;;8.90;99.90;;;;;;5008591;28;20022;-61
2023/12/31 02:12:58;;;;;;;2.72;1.55;;;8.90;99.90;;;;;;5012026;28;20021;-62
2023/12/31 02:15:31;;;;;;;3.53;2.10;;;8.80;99.90;;;;;;5005732;28;20042;-61
2023/12/31 02:17:57;;;;;;;3.80;2.05;;;8.80;99.90;;;;;;5009597;28;20030;-60
2023/12/31 02:20:23;;;;;;;5.88;3.47;;;8.80;99.90;;;;;;5005199;28;20083;-61
2023/12/31 02:22:48;;;;;;;9.45;3.85;;;8.80;99.90;;;;;;5001879;28;20022;-61
2023/12/31 02:25:16;;;;;;;10.38;4.00;;;8.70;99.90;;;;;;5003853;28;20038;-60
2023/12/31 02:27:42;;;;;;;8.55;4.72;;;8.70;99.90;;;;;;5011417;28;20049;-61
2023/12/31 02:30:08;;;;;;;9.68;4.50;;;8.60;99.90;;;;;;5009064;28;20049;-60
2023/12/31 02:32:33;;;;;;;10.55;5.05;;;8.60;99.90;;;;;;5007972;28;20034;-60
2023/12/31 02:34:59;;;;;;;13.27;4.50;;;8.60;99.90;;;;;;5006173;28;20022;-61
2023/12/31 02:37:24;;;;;;;6.20;3.50;;;8.50;99.90;;;;;;5007926;28;20032;-60
2023/12/31 02:39:50;;;;;;;14.02;4.18;;;8.50;99.90;;;;;;4999406;28;20033;-60
2023/12/31 02:42:15;;;;;;;9.27;3.70;;;8.50;99.90;;;;;;5009326;28;20404;-61
2023/12/31 02:44:41;;;;;;;8.95;4.63;;;8.50;99.90;;;;;;5008311;28;20059;-61
2023/12/31 02:47:07;;;;;;;5.70;3.85;;;8.50;99.90;;;;;;5003275;28;20053;-61
2023/12/31 02:49:33;;;;;;;6.68;3.58;;;8.50;99.90;;;;;;5005628;28;20072;-61
2023/12/31 02:51:58;;;;;;;6.10;3.53;;;8.50;99.90;;;;;;5002149;28;20034;-60
2023/12/31 02:54:24;;;;;;;8.73;3.78;;;8.50;99.90;;;;;;5007121;28;20034;-60
2023/12/31 02:56:49;;;;;;;7.93;2.97;;;8.60;99.90;;;;;;5009904;28;20022;-61
2023/12/31 02:59:15;;;;;;;4.78;3.20;;;8.60;99.90;;;;;;5004024;28;20033;-62
2023/12/31 03:01:40;;;;;;;7.80;3.58;;;8.60;99.90;;;;;;5001128;28;20062;-61
2023/12/31 03:04:06;;;;;;;3.53;2.75;;;8.70;99.90;;;;;;5004516;28;20026;-60
2023/12/31 03:06:36;;;;;;;5.18;3.00;;;8.70;99.90;;;;;;5002025;28;20038;-60
2023/12/31 03:09:01;;;;;;;4.72;2.72;;;8.80;99.90;;;;;;5005748;28;20030;-62
2023/12/31 03:11:27;;;;;;;6.43;2.50;;;8.80;99.90;;;;;;5009627;28;20033;-60
2023/12/31 03:13:53;;;;;;;4.93;2.88;;;8.90;99.90;;;;;;5010731;28;20088;-61
2023/12/31 03:16:18;;;;;;;5.57;3.22;;;9.00;99.90;;;;;;5004826;28;20078;-61
2023/12/31 03:18:44;;;;;;;6.07;2.88;;;9.00;99.90;;;;;;5007510;28;20519;-61
2023/12/31 03:21:16;;;;;;;7.35;2.65;;;9.00;99.90;;;;;;5006254;28;20404;-57
2023/12/31 03:23:41;;;;;;;4.80;2.80;;;9.00;99.90;;;;;;4984888;28;20030;-60
2023/12/31 03:26:07;;;;;;;5.90;2.85;;;9.00;99.90;;;;;;5007962;28;20046;-61
2023/12/31 03:28:33;;;;;;;4.10;2.67;;;9.00;99.90;;;;;;5010895;28;20034;-58
2023/12/31 03:30:58;;;;;;;4.80;2.50;;;9.00;99.90;;;;;;5007991;28;20026;-60
2023/12/31 03:33:24;;;;;;;3.28;2.10;;;9.00;99.90;;;;;;5010362;28;20433;-60
2023/12/31 03:35:50;;;;;;;6.20;3.08;;;9.00;99.90;;;;;;5010016;28;20022;-57
2023/12/31 03:38:15;;;;;;;4.38;2.90;;;9.10;99.90;;;;;;4989548;28;20032;-60
2023/12/31 03:40:41;;;;;;;5.80;2.53;;;9.10;99.90;;;;;;4993757;28;20040;-61
2023/12/31 03:43:06;;;;;;;3.75;2.78;;;9.00;99.90;;;;;;5008457;28;20476;-58
2023/12/31 03:45:32;;;;;;;4.78;3.38;;;9.00;99.90;;;;;;5009350;28;20030;-61
2023/12/31 03:47:58;;;;;;;5.05;2.78;;;9.00;99.90;;;;;;5010293;28;20096;-60
2023/12/31 03:50:23;;;;;;;4.50;2.60;;;9.00;99.90;;;;;;4987377;28;20603;-59
2023/12/31 03:52:49;;;;;;;7.65;3.20;;;9.00;99.90;;;;;;5006329;28;20033;-58
2023/12/31 03:55:14;;;;;;;9.57;2.50;;;9.00;99.90;;;;;;5008985;28;20089;-58
2023/12/31 03:57:40;;;;;;;4.15;2.22;;;9.00;99.90;;;;;;5003520;28;20158;-60
2023/12/31 04:00:07;;;;;;;4.55;2.78;;;8.90;99.90;;;;;;5005956;28;20030;-60
2023/12/31 04:02:34;;;;;;;6.38;2.40;;;9.00;99.90;;;;;;5008406;28;20037;-58
2023/12/31 04:04:59;;;;;;;7.07;2.67;;;8.90;99.90;;;;;;5006416;28;20037;-61
2023/12/31 04:07:25;;;;;;;4.55;2.20;;;8.90;99.90;;;;;;5005770;28;20022;-62
2023/12/31 04:09:50;;;;;;;7.03;2.80;;;8.90;99.90;;;;;;4988407;28;20129;-61
2023/12/31 04:12:16;;;;;;;4.00;1.85;;;9.00;99.90;;;;;;5009194;28;20052;-60
2023/12/31 04:14:41;;;;;;;3.00;2.20;;;9.00;99.90;;;;;;5004416;28;20436;-61
2023/12/31 04:17:07;;;;;;;4.32;2.33;;;9.00;99.90;;;;;;5007302;28;20028;-61
2023/12/31 04:19:32;;;;;;;5.30;2.30;;;9.00;99.90;;;;;;5008760;28;20526;-59
2023/12/31 04:21:58;;;;;;;3.67;1.88;;;9.00;99.90;;;;;;5002042;28;20496;-60
2023/12/31 04:24:23;;;;;;;4.15;2.33;;;8.90;99.90;;;;;;5008689;28;20026;-61
2023/12/31 04:26:49;;;;;;;3.58;2.20;;;8.90;99.90;;;;;;5008068;28;20014;-61
2023/12/31 04:29:14;;;;;;;3.22;2.00;;;9.00;99.90;;;;;;5009726;28;20060;-61
2023/12/31 04:31:45;;;;;;;2.17;1.98;;;9.00;99.90;;;;;;5005932;28;20038;-61
2023/12/31 04:34:10;;;;;;;5.18;1.95;;;9.10;99.90;;;;;;5007139;28;20026;-61
2023/12/31 04:36:36;;;;;;;5.38;2.58;;;9.10;99.90;;;;;;5000767;28;20026;-59
2023/12/31 04:39:03;;;;;;;3.40;2.17;;;9.10;99.90;;;;;;5006939;28;21460;-60
2023/12/31 04:41:28;;;;;;;4.63;2.20;;;9.10;99.90;;;;;;5006252;28;20492;-61
2023/12/31 04:43:54;;;;;;;7.30;2.28;;;9.10;99.90;;;;;;5006090;28;20088;-60
2023/12/31 04:46:20;;;;;;;4.35;2.10;;;9.10;99.90;;;;;;5001444;28;20512;-59
2023/12/31 04:48:46;;;;;;;8.02;1.98;;;9.10;99.90;;;;;;5007303;28;20034;-60
2023/12/31 04:51:31;;;;;;;3.33;2.00;;;9.10;99.90;;;;;;5008400;28;20076;-61
2023/12/31 04:53:57;;;;;;;4.60;2.35;;;9.10;99.90;;;;;;5013941;28;20030;-61
2023/12/31 04:56:26;;;;;;;4.72;2.20;;;9.10;99.90;;;;;;5013350;28;20053;-60
2023/12/31 04:58:54;;;;;;;3.00;2.42;;;9.20;99.90;;;;;;5018578;28;20484;-61
2023/12/31 05:01:19;;;;;;;6.18;2.88;;;9.20;99.90;;;;;;5006276;28;20026;-60
2023/12/31 05:03:46;;;;;;;5.88;2.78;;;9.20;99.90;;;;;;5007528;28;20034;-59
2023/12/31 05:06:12;;;;;;;4.35;2.53;;;9.20;99.90;;;;;;5000895;28;20467;-61
2023/12/31 05:08:43;;;;;;;7.50;2.60;;;9.30;99.90;;;;;;5006093;28;20112;-58
2023/12/31 05:11:08;;;;;;;3.33;1.88;;;9.30;99.90;;;;;;5012404;28;20377;-60
2023/12/31 05:13:34;;;;;;;3.30;2.25;;;9.30;99.90;;;;;;5011406;28;20041;-60
2023/12/31 05:16:00;;;;;;;7.57;2.40;;;9.30;99.90;;;;;;5006623;28;20033;-60
2023/12/31 05:18:26;;;;;;;2.55;1.77;;;9.20;99.90;;;;;;5008822;28;20091;-60
2023/12/31 05:20:51;;;;;;;7.32;2.25;;;9.20;99.90;;;;;;5008384;28;20030;-60
2023/12/31 05:23:17;;;;;;;4.10;2.10;;;9.20;99.90;;;;;;5004667;28;20058;-58
2023/12/31 05:25:42;;;;;;;4.72;2.25;;;9.30;99.90;;;;;;5009394;28;20033;-60
2023/12/31 05:28:08;;;;;;;6.53;2.45;;;9.30;99.90;;;;;;5010047;28;20527;-61
2023/12/31 05:30:33;;;;;;;3.42;2.33;;;9.30;99.90;;;;;;5011399;28;20117;-60
2023/12/31 05:32:59;;;;;;;4.30;2.10;;;9.30;99.90;;;;;;5006285;28;20444;-59
2023/12/31 05:35:25;;;;;;;6.57;3.08;;;9.30;99.90;;;;;;5009273;28;20502;-61
2023/12/31 05:37:51;;;;;;;4.97;2.55;;;9.30;99.90;;;;;;5012521;28;20112;-60
2023/12/31 05:40:18;;;;;;;3.20;2.15;;;9.20;99.90;;;;;;5013015;28;20026;-60
2023/12/31 05:42:43;;;;;;;3.95;2.30;;;9.30;99.90;;;;;;5008220;28;20487;-60
2023/12/31 05:45:09;;;;;;;6.13;2.35;;;9.30;99.90;;;;;;5009657;28;20025;-61
2023/12/31 05:47:35;;;;;;;5.00;2.55;;;9.20;99.90;;;;;;5004796;28;20018;-61
2023/12/31 05:50:00;;;;;;;6.97;2.50;;;9.30;99.90;;;;;;5009426;28;20476;-61
2023/12/31 05:52:26;;;;;;;4.32;2.33;;;9.30;99.90;;;;;;5010921;28;20439;-60
2023/12/31 05:54:51;;;;;;;3.72;2.55;;;9.30;99.90;;;;;;5008785;28;20072;-61
2023/12/31 05:57:17;;;;;;;4.05;2.40;;;9.30;99.90;;;;;;5011216;28;20260;-57
2023/12/31 05:59:42;;;;;;;3.88;2.60;;;9.30;99.90;;;;;;5009539;28;20040;-61
2023/12/31 06:02:08;;;;;;;4.88;2.45;;;9.40;99.90;;;;;;5002307;28;20026;-59
2023/12/31 06:04:33;;;;;;;2.97;2.10;;;9.30;99.90;;;;;;5008902;28;20037;-61
2023/12/31 06:06:59;;;;;;;5.13;2.40;;;9.30;99.90;;;;;;5007876;28;20022;-61
2023/12/31 06:09:26;;;;;;;3.00;1.77;;;9.30;99.90;;;;;;5006934;28;20068;-61
2023/12/31 06:11:52;;;;;;;4.50;1.67;;;9.30;99.90;;;;;;5008820;28;20030;-61
2023/12/31 06:14:17;;;;;;;3.05;2.10;;;9.40;99.90;;;;;;5011792;28;20603;-61
2023/12/31 06:16:43;;;;;;;3.65;2.08;;;9.40;99.90;;;;;;5003206;28;20095;-61
2023/12/31 06:19:08;;;;;;;9.23;3.25;;;9.40;99.90;;;;;;5006596;28;20038;-60
2023/12/31 06:21:34;;;;;;;6.00;2.53;;;9.40;99.90;;;;;;5004721;28;20033;-61
2023/12/31 06:23:59;;;;;;;5.90;2.00;;;9.40;99.90;;;;;;5006276;28;20548;-61
2023/12/31 06:26:25;;;;;;;6.68;1.90;;;9.30;99.90;;;;;;5008830;28;20034;-59
2023/12/31 06:28:50;;;;;;;2.95;2.15;;;9.40;99.90;;;;;;5011708;28;20030;-60
2023/12/31 06:31:16;;;;;;;3.92;1.48;;;9.40;99.90;;;;;;5004979;28;20380;-60
2023/12/31 06:33:41;;;;;;;3.63;2.22;;;9.40;99.90;;;;;;5005060;28;20506;-60
2023/12/31 06:36:07;;;;;;;3.17;2.10;;;9.40;99.90;;;;;;5005308;28;20501;-60
2023/12/31 06:38:32;;;;;;;3.60;1.90;;;9.40;99.90;;;;;;5009807;28;20532;-60
2023/12/31 06:40:58;;;;;;;4.35;2.00;;;9.50;99.90;;;;;;5010023;28;20492;-58
2023/12/31 06:43:24;;;;;;;7.50;2.10;;;9.50;99.90;;;;;;5011730;28;20109;-59
2023/12/31 06:45:49;;;;;;;1.98;1.50;;;9.60;99.90;;;;;;5010772;28;20030;-62
2023/12/31 06:48:15;;;;;;;2.55;1.50;;;9.60;99.90;;;;;;5004576;28;20034;-62
2023/12/31 06:50:40;;;;;;;4.20;1.83;;;9.50;99.90;;;;;;5005301;28;20035;-59
2023/12/31 06:53:06;;;;;;;2.10;1.30;;;9.50;99.90;;;;;;5009564;28;20045;-58
2023/12/31 06:55:31;;;;;;;7.35;1.67;;;9.50;99.90;;;;;;5009442;28;20449;-60
2023/12/31 06:57:57;;;;;;;2.40;1.27;;;9.50;99.90;;;;;;5007655;28;20044;-60
2023/12/31 07:00:23;;;;;;;2.55;1.45;;;9.50;99.90;;;;;;5008454;28;20037;-61
2023/12/31 07:02:48;;;;;;;4.20;2.30;;;9.50;99.90;;;;;;5004704;28;20109;-58
2023/12/31 07:05:14;;;;;;;3.97;1.45;;;9.50;99.90;;;;;;5009638;28;20033;-59
2023/12/31 07:07:40;;;;;;;4.05;2.13;;;9.60;99.90;;;;;;5006727;28;20029;-61
2023/12/31 07:10:06;;;;;;;3.97;2.13;;;9.50;99.90;;;;;;5010001;28;20057;-59
2023/12/31 07:12:32;;;;;;;7.45;1.92;;;9.50;99.90;;;;;;5006984;28;20029;-60
2023/12/31 07:14:57;;;;;;;3.78;1.58;;;9.50;99.90;;;;;;5009339;28;20095;-59
2023/12/31 07:17:23;;;;;;;3.20;1.63;;;9.50;99.90;;;;;;5000072;28;20030;-61
2023/12/31 07:19:49;;;;;;;3.67;1.60;;;9.50;99.90;;;;;;5003679;28;20030;-59
2023/12/31 07:22:14;;;;;;;4.20;1.50;;;9.50;99.90;;;;;;5001998;28;20088;-60
2023/12/31 07:24:40;;;;;;;5.13;2.03;;;9.60;99.90;;;;;;5004739;28;20102;-58
2023/12/31 07:27:08;;;;;;;4.47;1.60;;;9.60;99.90;;;;;;5003362;28;20080;-59
2023/12/31 07:29:33;;;;;;;5.30;1.90;;;9.60;99.90;;;;;;5003403;28;20117;-58
2023/12/31 07:31:59;;;;;;;7.45;1.80;;;9.60;99.90;;;;;;4999552;28;20113;-60
2023/12/31 07:34:24;;;;;;;2.70;1.83;;;9.50;99.90;;;;;;5001480;28;20037;-60
2023/12/31 07:36:50;;;;;;;2.08;1.65;;;9.50;99.90;;;;;;5004518;28;20559;-59
2023/12/31 07:39:16;;;;;;;4.15;1.77;;;9.50;99.90;;;;;;5008126;28;20038;-61
2023/12/31 07:41:41;;;;;;;2.85;1.48;;;9.50;99.90;;;;;;5009430;28;20026;-60
2023/12/31 07:44:07;;;;;;;3.65;1.85;;;9.40;99.90;;;;;;5002851;28;20559;-61
2023/12/31 07:46:32;;;;;;;4.60;1.85;;;9.40;99.90;;;;;;5007103;28;20485;-61
2023/12/31 07:48:58;;;;;;;4.35;2.33;;;9.40;99.90;;;;;;4999242;28;20034;-60
2023/12/31 07:51:23;;;;;;;2.80;1.65;;;9.50;99.90;;;;;;5003721;28;20041;-61
2023/12/31 07:53:49;;;;;;;3.42;1.55;;;9.50;99.90;;;;;;5003716;28;20053;-60
2023/12/31 07:56:15;;;;;;;4.03;1.55;;;9.50;99.90;;;;;;5010588;28;20064;-61
2023/12/31 07:58:40;;;;;;;5.30;2.63;;;9.50;99.90;;;;;;5005403;28;20057;-61
2023/12/31 08:01:06;;;;;;;7.10;2.20;;;9.60;99.90;;;;;;5006434;28;20420;-60
2023/12/31 08:03:31;;;;;;;8.38;2.20;;;9.50;99.90;;;;;;5000372;28;20444;-61
2023/12/31 08:05:57;;;;;;;3.83;1.70;;;9.50;99.90;;;;;;5002333;28;20045;-59
2023/12/31 08:08:24;;;;;;;6.20;1.67;;;9.60;99.90;;;;;;4989584;28;20022;-61
2023/12/31 08:10:49;;;;;;;2.88;1.60;;;9.60;99.90;;;;;;5007332;28;20026;-61
2023/12/31 08:13:15;;;;;;;3.20;2.05;;;9.70;99.90;;;;;;5006183;28;20499;-61
2023/12/31 08:15:41;;;;;;;5.78;2.13;;;9.70;99.90;;;;;;5005723;28;20042;-61
2023/12/31 08:18:07;;;;;;;4.80;2.08;;;9.70;99.90;;;;;;4984857;28;20045;-60
2023/12/31 08:20:33;;;;;;;4.07;2.15;;;9.70;99.90;;;;;;5004374;28;20026;-60
2023/12/31 08:22:59;;;;;;;5.07;2.30;;;9.80;99.90;;;;;;5002593;28;20424;-58
2023/12/31 08:25:24;;;;;;;2.78;2.15;;;9.80;99.90;;;;;;5008076;28;20480;-58
2023/12/31 08:27:50;;;;;;;4.32;2.60;;;9.90;99.90;;;;;;5009674;28;20033;-59
2023/12/31 08:30:16;;;;;;;6.00;2.38;;;9.90;99.90;;;;;;5004312;28;20026;-60
2023/12/31 08:32:41;;;;;;;4.15;1.73;;;9.90;99.90;;;;;;5003032;28;20599;-60
2023/12/31 08:35:10;;;;;;;2.35;1.63;;;9.90;99.90;;;;;;5003325;28;20088;-61
2023/12/31 08:37:35;;;;;;;3.17;1.70;;;9.90;99.90;;;;;;5006293;28;20030;-61
2023/12/31 08:40:01;;;;;;;5.57;2.20;;;10.00;99.90;;;;;;5003124;28;20396;-60
2023/12/31 08:42:27;;;;;;;9.25;2.60;;;10.00;99.90;;;;;;5008193;28;20071;-60
2023/12/31 08:44:52;;;;;;;5.32;2.17;;;10.10;99.90;;;;;;4991348;28;20109;-61
2023/12/31 08:47:18;;;;;;;4.88;2.55;;;10.10;99.90;;;;;;5010118;28;20492;-62
2023/12/31 08:49:43;;;;;;;4.32;2.13;;;10.20;99.90;;;;;;5014399;28;20030;-61
2023/12/31 08:52:09;;;;;;;4.43;2.13;;;10.30;99.90;;;;;;4997535;28;20033;-59
2023/12/31 08:54:34;;;;;;;3.90;2.03;;;10.30;99.90;;;;;;5010956;28;20022;-61
2023/12/31 08:57:00;;;;;;;4.60;2.70;;;10.40;99.90;;;;;;5012787;28;20484;-61
2023/12/31 08:59:25;;;;;;;3.17;1.98;;;10.30;99.90;;;;;;5013286;28;20063;-60
2023/12/31 09:01:51;;;;;;;4.55;2.70;;;10.40;99.90;;;;;;5006623;28;20427;-61
2023/12/31 09:04:17;;;;;;;4.32;2.58;;;10.40;99.90;;;;;;5007228;28;20018;-59
2023/12/31 09:06:44;;;;;;;4.38;2.17;;;10.40;99.90;;;;;;5007433;28;20041;-59
2023/12/31 09:09:10;;;;;;;3.97;2.25;;;10.40;99.90;;;;;;5012894;28;20521;-61
2023/12/31 09:11:35;;;;;;;3.08;2.00;;;10.40;99.90;;;;;;4993371;28;20026;-59
2023/12/31 09:14:01;;;;;;;5.32;2.90;;;10.40;99.90;;;;;;5011235;28;20034;-61
2023/12/31 09:16:27;;;;;;;8.07;3.10;;;10.40;99.90;;;;;;5011268;28;20033;-61
2023/12/31 09:18:52;;;;;;;4.18;2.45;;;10.50;99.90;;;;;;5006194;28;20117;-61
2023/12/31 09:21:18;;;;;;;5.90;2.63;;;10.50;99.90;;;;;;5009094;28;20116;-58
2023/12/31 09:23:43;;;;;;;4.35;2.40;;;10.60;99.90;;;;;;5008051;28;20439;-60
2023/12/31 09:26:10;;;;;;;6.70;3.03;;;10.60;99.90;;;;;;5013113;28;20487;-61
2023/12/31 09:28:37;;;;;;;3.67;2.03;;;10.60;99.90;;;;;;5011525;28;20381;-57
2023/12/31 09:31:02;;;;;;;6.90;2.70;;;10.60;99.90;;;;;;5008727;28;20030;-61
2023/12/31 09:33:28;;;;;;;4.55;3.00;;;10.60;99.90;;;;;;5010539;28;20026;-59
2023/12/31 09:35:53;;;;;;;9.70;4.82;;;10.70;99.90;;;;;;5012524;28;20041;-61
2023/12/31 09:38:19;;;;;;;13.07;7.38;;;10.70;99.90;;;;;;5008614;28;20075;-60
2023/12/31 09:40:44;;;;;;;7.55;3.65;;;10.80;99.90;;;;;;5008821;28;20037;-59
2023/12/31 09:43:13;;;;;;;5.07;2.85;;;10.90;99.90;;;;;;5005084;28;20157;-59
2023/12/31 09:45:39;;;;;;;5.30;3.15;;;10.90;99.90;;;;;;5006188;28;20087;-60
2023/12/31 09:48:06;;;;;;;4.85;3.28;;;11.00;99.90;;;;;;5007637;28;20089;-61
2023/12/31 09:50:33;;;;;;;4.10;2.70;;;11.00;99.90;;;;;;5004627;28;20037;-60
2023/12/31 09:53:02;;;;;;;3.95;2.78;;;11.00;99.90;;;;;;5005314;28;20026;-60
2023/12/31 09:55:29;;;;;;;3.92;2.88;;;11.00;99.90;;;;;;5003407;28;20161;-60
2023/12/31 09:57:55;;;;;;;3.75;2.53;;;11.10;99.90;;;;;;5004193;28;20026;-61
2023/12/31 10:00:21;;;;;;;4.45;2.88;;;11.20;99.90;;;;;;5002993;28;20038;-61
2023/12/31 10:02:51;;;;;;;7.32;3.38;;;11.20;99.90;;;;;;5003986;28;20087;-60
2023/12/31 10:05:20;;;;;;;5.88;2.92;;;11.20;99.90;;;;;;5004952;28;20027;-60
2023/12/31 10:07:46;;;;;;;5.35;2.80;;;11.20;99.90;;;;;;5008311;28;20083;-60
2023/12/31 10:10:14;;;;;;;5.20;2.55;;;11.30;99.90;;;;;;5003418;28;20383;-61
2023/12/31 10:12:40;;;;;;;5.43;2.95;;;11.40;99.90;;;;;;5004555;28;20029;-61
2023/12/31 10:15:08;;;;;;;6.55;2.25;;;11.50;99.90;;;;;;5007492;28;20130;-60
2023/12/31 10:17:35;;;;;;;3.63;2.47;;;11.50;99.90;;;;;;5011948;28;20109;-61
2023/12/31 10:20:03;;;;;;;2.83;2.03;;;11.60;99.90;;;;;;5009205;28;20028;-58
2023/12/31 10:22:35;;;;;;;3.75;2.40;;;11.60;99.90;;;;;;5003136;28;20030;-61
2023/12/31 10:25:18;;;;;;;2.50;1.50;;;11.60;99.90;;;;;;5006506;28;20101;-60
2023/12/31 10:27:47;;;;;;;4.13;1.48;;;11.50;99.90;;;;;;5003471;28;20555;-61
2023/12/31 10:30:13;;;;;;;1.30;1.10;;;11.50;99.90;;;;;;5004729;28;20524;-58
2023/12/31 10:32:39;;;;;;;3.55;1.10;;;11.50;99.90;;;;;;5010505;28;20108;-59
2023/12/31 10:35:05;;;;;;;2.92;1.10;;;11.50;99.90;;;;;;5006441;28;20137;-60
2023/12/31 10:37:31;;;;;;;3.08;1.60;;;11.50;99.90;;;;;;5007410;28;20029;-59
2023/12/31 10:39:57;;;;;;;3.40;1.05;;;11.40;99.90;;;;;;5009596;28;20440;-61
2023/12/31 10:42:22;;;;;;;1.45;0.65;;;11.40;99.90;;;;;;5005039;28;20081;-61
2023/12/31 10:44:53;;;;;;;4.68;0.95;;;11.40;99.90;;;;;;5003909;28;20734;-60
2023/12/31 10:47:22;;;;;;;2.15;0.65;;;11.30;99.90;;;;;;5000533;28;20923;-60
2023/12/31 10:49:49;;;;;;;0.60;0.57;;;11.30;99.90;;;;;;5002775;28;20475;-58
2023/12/31 10:52:15;;;;;;;2.40;0.90;;;11.30;99.90;;;;;;5007264;28;20034;-60
2023/12/31 10:54:51;;;;;;;2.13;0.75;;;11.20;99.90;;;;;;5004994;28;20130;-61
2023/12/31 10:57:19;;;;;;;1.90;1.50;;;11.20;99.90;;;;;;5007115;28;20562;-60
2023/12/31 10:59:47;;;;;;;1.73;0.55;;;11.10;99.90;;;;;;5005091;28;20034;-61
2023/12/31 11:02:18;;;;;;;0.68;0.60;;;11.10;99.90;;;;;;5008049;28;20054;-59
2023/12/31 11:04:47;;;;;;;4.20;0.55;;;11.10;99.90;;;;;;5007062;28;20026;-61
2023/12/31 11:07:17;;;;;;;0.50;0.40;;;11.10;99.90;;;;;;5002544;28;20096;-61
2023/12/31 11:09:46;;;;;;;3.42;0.80;;;11.10;99.90;;;;;;5008793;28;20034;-59
2023/12/31 11:12:12;;;;;;;5.93;1.38;;;11.10;99.90;;;;;;5007190;28;20028;-62
2023/12/31 11:14:42;;;;;;;2.20;0.47;;;11.20;99.90;;;;;;5005106;28;20045;-60
2023/12/31 11:17:22;;;;;;;2.75;0.55;;;11.10;99.90;;;;;;5004858;28;20029;-60
2023/12/31 11:20:19;;;;;;;1.33;0.50;;;11.10;99.90;;;;;;5010935;28;20037;-56
2023/12/31 11:23:23;;;;;;;1.30;0.40;;;11.00;99.90;;;;;;4975313;28;20065;-60
2023/12/31 11:25:49;;;;;;;0.65;0.38;;;11.00;99.90;;;;;;4999618;28;20026;-59
2023/12/31 11:28:17;;;;;;;0.65;0.47;;;10.90;99.90;;;;;;5004709;28;20503;-58
2023/12/31 11:30:49;;;;;;;1.85;0.40;;;10.90;99.90;;;;;;5006849;28;20631;-61
2023/12/31 11:33:24;;;;;;;4.60;0.68;;;10.90;99.90;;;;;;5004997;28;20037;-61
2023/12/31 11:35:53;;;;;;;1.85;0.52;;;10.90;99.90;;;;;;4998337;28;20038;-59
2023/12/31 11:38:19;;;;;;;0.82;0.43;;;10.90;99.90;;;;;;5001446;28;20034;-58
2023/12/31 11:40:45;;;;;;;1.83;0.40;;;10.90;99.90;;;;;;5004730;28;20031;-61
2023/12/31 11:43:19;;;;;;;4.13;0.70;;;10.90;99.90;;;;;;5006693;28;20084;-59
2023/12/31 11:45:45;;;;;;;;;;;11.00;99.90;;;;;;5001022;28;20041;-58
2023/12/31 11:48:20;;;;;;;1.27;0.50;;;10.90;99.90;;;;;;5006738;28;19909;-56
2023/12/31 11:50:54;;;;;;;8.23;0.38;;;10.90;99.90;;;;;;5007461;28;20030;-59
2023/12/31 11:53:25;;;;;;;1.65;0.50;;;10.90;99.90;;;;;;5003129;28;20091;-57
2023/12/31 11:55:57;;;;;;;1.83;0.40;;;10.90;99.90;;;;;;4997288;28;20424;-58
2023/12/31 11:58:26;;;;;;;1.15;0.50;;;10.90;99.90;;;;;;4996079;28;20522;-58
2023/12/31 12:00:53;;;;;;;3.63;1.67;;;10.90;99.90;;;;;;5001401;28;20030;-61
2023/12/31 12:03:19;;;;;;;1.45;0.70;;;10.90;99.90;;;;;;5000268;28;20034;-60
2023/12/31 12:05:50;;;;;;;4.82;0.75;;;10.90;99.90;;;;;;5003758;28;20045;-57
2023/12/31 12:08:16;;;;;;;7.53;0.60;;;10.80;99.90;;;;;;4988887;28;20507;-59
2023/12/31 12:10:42;;;;;;;1.83;0.40;;;10.80;99.90;;;;;;5003545;28;20125;-56
2023/12/31 12:13:08;;;;;;;0.82;0.40;;;10.90;99.90;;;;;;4998988;28;20876;-59
2023/12/31 12:15:38;;;;;;;1.70;0.50;;;10.80;99.90;;;;;;4998733;28;20033;-59
2023/12/31 12:18:24;;;;;;;0.50;0.35;;;10.90;99.90;;;;;;4999310;28;20125;-58
2023/12/31 12:20:50;;;;;;;1.70;0.30;;;10.90;99.90;;;;;;5005477;28;20033;-58
2023/12/31 12:23:19;;;;;;;1.00;0.30;;;10.90;99.90;;;;;;4997673;28;20428;-58
2023/12/31 12:25:46;;;;;;;1.98;0.75;;;10.90;99.90;;;;;;4998129;28;20471;-58
2023/12/31 12:28:12;;;;;;;1.85;0.73;;;11.00;99.90;;;;;;4998545;28;20026;-58
2023/12/31 12:30:39;;;;;;;4.32;0.88;;;11.00;99.90;;;;;;4999901;28;20034;-60
2023/12/31 12:33:06;;;;;;;3.03;0.82;;;11.00;99.90;;;;;;4998849;28;20072;-58
2023/12/31 12:35:32;;;;;;;4.35;0.70;;;11.00;99.90;;;;;;5000834;28;20146;-55
2023/12/31 12:37:57;;;;;;;4.05;0.80;;;10.90;99.90;;;;;;5004869;28;20137;-55
2023/12/31 12:40:23;;;;;;;2.08;0.93;;;10.90;99.90;;;;;;5003671;28;21591;-58
2023/12/31 12:42:49;;;;;;;1.60;0.40;;;10.90;99.90;;;;;;4997376;28;20085;-59
2023/12/31 12:45:15;;;;;;;0.95;0.50;;;11.00;99.90;;;;;;4999618;28;20053;-56
2023/12/31 12:47:42;;;;;;;2.45;0.40;;;11.00;99.90;;;;;;5001660;28;20564;-58
2023/12/31 12:50:11;;;;;;;0.55;0.30;;;11.00;99.90;;;;;;5004966;28;20034;-55